Time;durP1;ratioP1;P1;durP2;ratioP2;P2;SDS_P1;SDS_P2;PMS_P1;PMS_P2;Temp;Humidity;BMP_temperature;BMP_pressure;BME280_temperature;BME280_humidity;BME280_pressure;Samples;Min_cycle;Max_cycle;Signal;HPM_P1;HPM_P2
2021/09/20 00:07:25;;;;;;;1.92;1.27;;;17.60;72.20;;;;;;20756843;28;20053;-75
2021/09/20 00:17:25;;;;;;;1.55;0.85;;;17.70;72.20;;;;;;20772935;28;20107;-75
2021/09/20 00:27:26;;;;;;;1.80;1.08;;;17.70;72.20;;;;;;20755609;28;20145;-75
2021/09/20 00:37:26;;;;;;;1.10;0.70;;;17.60;72.20;;;;;;20755651;28;20042;-75
2021/09/20 00:47:27;;;;;;;1.85;1.15;;;17.60;72.20;;;;;;20760965;28;20042;-75
2021/09/20 00:57:27;;;;;;;1.17;0.70;;;17.60;72.10;;;;;;20753571;28;20038;-75
2021/09/20 01:07:28;;;;;;;1.17;0.70;;;17.60;72.10;;;;;;20752331;28;20355;-75
2021/09/20 01:17:30;;;;;;;1.23;0.90;;;17.60;72.10;;;;;;20784830;28;20038;-75
2021/09/20 01:27:30;;;;;;;1.85;0.70;;;17.60;72.10;;;;;;20751968;28;20038;-76
2021/09/20 01:37:31;;;;;;;1.23;0.73;;;17.60;72.10;;;;;;20766871;28;20041;-75
2021/09/20 01:47:31;;;;;;;3.17;0.80;;;17.60;72.00;;;;;;20749824;28;20037;-75
2021/09/20 01:57:32;;;;;;;2.10;0.95;;;17.60;72.00;;;;;;20780993;28;20112;-76
2021/09/20 02:07:34;;;;;;;1.45;0.90;;;17.60;71.90;;;;;;20764989;28;20033;-77
2021/09/20 02:17:34;;;;;;;1.08;0.75;;;17.60;71.90;;;;;;20780280;28;20100;-75
2021/09/20 02:27:36;;;;;;;0.98;0.80;;;17.60;71.90;;;;;;20746087;28;20054;-75
2021/09/20 02:37:36;;;;;;;1.67;0.85;;;17.60;71.90;;;;;;20729280;28;20084;-76
2021/09/20 02:47:37;;;;;;;1.73;0.98;;;17.60;71.90;;;;;;20761401;28;20033;-75
2021/09/20 02:57:38;;;;;;;1.98;1.10;;;17.60;71.80;;;;;;20760722;28;20061;-75
2021/09/20 03:07:42;;;;;;;1.67;1.08;;;17.60;71.80;;;;;;20743063;28;20066;-75
2021/09/20 03:17:43;;;;;;;1.17;0.88;;;17.60;71.80;;;;;;20760046;28;20042;-75
2021/09/20 03:27:43;;;;;;;1.65;0.90;;;17.50;71.70;;;;;;20742001;28;20100;-75
2021/09/20 03:37:45;;;;;;;3.03;1.42;;;17.50;71.70;;;;;;20775740;28;20034;-78
2021/09/20 03:47:46;;;;;;;2.55;1.02;;;17.50;71.70;;;;;;20739699;28;20404;-77
2021/09/20 03:57:46;;;;;;;1.42;0.88;;;17.50;71.70;;;;;;20757201;28;20066;-78
2021/09/20 04:07:47;;;;;;;1.35;1.00;;;17.50;71.60;;;;;;20773458;28;20539;-77
2021/09/20 04:17:48;;;;;;;1.67;1.25;;;17.50;71.60;;;;;;20757905;28;20522;-77
2021/09/20 04:27:49;;;;;;;1.45;0.85;;;17.50;71.60;;;;;;20756497;28;20038;-77
2021/09/20 04:37:50;;;;;;;1.67;0.82;;;17.50;71.60;;;;;;20755691;28;20034;-77
2021/09/20 04:47:50;;;;;;;1.30;0.73;;;17.50;71.60;;;;;;20771324;28;20045;-74
2021/09/20 04:57:52;;;;;;;1.73;0.80;;;17.50;71.70;;;;;;20787668;28;20038;-78
2021/09/20 05:07:52;;;;;;;1.80;1.00;;;17.50;71.60;;;;;;20751400;28;20116;-76
2021/09/20 05:17:53;;;;;;;1.35;0.80;;;17.60;71.70;;;;;;20751002;28;20129;-79
2021/09/20 05:27:55;;;;;;;1.63;1.02;;;17.50;71.60;;;;;;20737939;28;20451;-82
2021/09/20 05:37:56;;;;;;;2.47;0.98;;;17.50;71.60;;;;;;20752328;28;20030;-77
2021/09/20 05:47:58;;;;;;;2.50;0.75;;;17.50;71.60;;;;;;20748430;28;20065;-75
2021/09/20 05:58:01;;;;;;;0.77;0.70;;;17.40;71.40;;;;;;20748684;28;20030;-78
2021/09/20 06:08:02;;;;;;;2.38;1.20;;;17.40;71.40;;;;;;20698504;28;20073;-78
2021/09/20 06:18:03;;;;;;;1.13;0.80;;;17.40;71.40;;;;;;20749028;28;20046;-77
2021/09/20 06:28:04;;;;;;;2.17;0.90;;;17.40;71.40;;;;;;20747108;28;20783;-76
2021/09/20 06:38:05;;;;;;;1.80;0.82;;;17.40;71.50;;;;;;20755722;28;20088;-75
2021/09/20 06:48:05;;;;;;;1.90;1.17;;;17.40;71.50;;;;;;20744866;28;20479;-76
2021/09/20 06:58:06;;;;;;;0.87;0.73;;;17.40;71.40;;;;;;20729309;28;20480;-75
2021/09/20 07:08:07;;;;;;;1.20;0.80;;;17.40;71.50;;;;;;20743011;28;20388;-76
2021/09/20 07:18:08;;;;;;;2.08;1.45;;;17.40;71.50;;;;;;20759394;28;20030;-76
2021/09/20 07:28:09;;;;;;;1.15;0.57;;;17.40;71.50;;;;;;20753527;28;20127;-76
2021/09/20 07:38:09;;;;;;;1.52;0.80;;;17.40;71.50;;;;;;20724532;28;20666;-76
2021/09/20 07:48:10;;;;;;;1.47;0.90;;;17.40;71.50;;;;;;20741673;28;20046;-75
2021/09/20 07:58:12;;;;;;;1.73;0.82;;;17.40;71.50;;;;;;20739863;28;20375;-75
2021/09/20 08:08:13;;;;;;;1.10;0.77;;;17.40;71.50;;;;;;20722901;28;20137;-76
2021/09/20 08:18:14;;;;;;;1.63;0.77;;;17.40;71.60;;;;;;20771178;28;20501;-77
2021/09/20 08:28:16;;;;;;;1.58;0.80;;;17.40;71.60;;;;;;20719684;28;20048;-76
2021/09/20 08:38:17;;;;;;;1.02;0.90;;;17.40;71.70;;;;;;20743766;28;20395;-78
2021/09/20 08:48:18;;;;;;;1.23;0.73;;;17.50;71.80;;;;;;20710707;28;20133;-77
2021/09/20 08:58:18;;;;;;;1.33;0.63;;;17.40;71.70;;;;;;20726063;28;20083;-76
2021/09/20 09:08:19;;;;;;;1.07;0.70;;;17.40;71.70;;;;;;20731790;28;20038;-77
2021/09/20 09:18:19;;;;;;;0.93;0.60;;;17.50;71.80;;;;;;20774586;28;20738;-77
2021/09/20 09:28:25;;;;;;;2.15;0.80;;;17.40;71.70;;;;;;20757081;28;20044;-77
2021/09/20 09:38:27;;;;;;;1.20;0.60;;;17.50;71.70;;;;;;20757186;28;20037;-78
2021/09/20 09:48:30;;;;;;;2.40;1.05;;;17.50;71.80;;;;;;20770128;28;20041;-74
2021/09/20 09:58:31;;;;;;;3.03;1.20;;;17.40;71.50;;;;;;20749022;28;20042;-75
2021/09/20 10:08:31;;;;;;;4.72;1.08;;;17.40;71.30;;;;;;20728544;28;20491;-75
2021/09/20 10:18:33;;;;;;;1.83;1.00;;;17.50;71.30;;;;;;21078440;23;20141;-77
2021/09/20 10:28:40;;;;;;;1.23;0.90;;;17.50;71.40;;;;;;20878189;28;20455;-77
2021/09/20 10:38:50;;;;;;;1.77;0.82;;;17.50;71.40;;;;;;20845930;28;20061;-79
2021/09/20 10:49:01;;;;;;;0.90;0.60;;;17.50;71.40;;;;;;20812072;28;20045;-76
2021/09/20 10:59:10;;;;;;;1.80;0.90;;;17.50;71.40;;;;;;20779211;28;20133;-81
2021/09/20 11:09:32;;;;;;;0.70;0.45;;;17.60;71.40;;;;;;20877400;28;20553;-73
2021/09/20 11:19:41;;;;;;;1.40;0.75;;;17.60;71.40;;;;;;20900669;28;20114;-78
2021/09/20 11:29:44;;;;;;;1.45;0.95;;;17.60;71.30;;;;;;20890644;28;20057;-79
2021/09/20 11:39:48;;;;;;;1.20;0.75;;;17.60;71.30;;;;;;20887566;28;20052;-80
2021/09/20 11:49:51;;;;;;;1.25;0.60;;;17.50;71.30;;;;;;20892104;28;20040;-86
2021/09/20 12:00:01;;;;;;;1.10;0.90;;;17.60;71.30;;;;;;20879713;28;20047;-77
2021/09/20 12:10:12;;;;;;;1.45;0.93;;;17.50;71.30;;;;;;20889348;28;20052;-75
2021/09/20 12:20:13;;;;;;;1.30;0.70;;;17.50;71.30;;;;;;20882746;28;20040;-77
2021/09/20 12:30:21;;;;;;;1.35;0.90;;;17.50;71.30;;;;;;20900795;28;20401;-77
2021/09/20 12:40:25;;;;;;;1.70;0.95;;;17.50;71.20;;;;;;20880321;28;20041;-77
2021/09/20 12:50:26;;;;;;;1.80;0.80;;;17.50;70.90;;;;;;20919619;28;20044;-80
2021/09/20 13:00:37;;;;;;;3.10;1.13;;;17.50;70.70;;;;;;20960463;28;20032;-73
2021/09/20 13:10:42;;;;;;;1.63;0.70;;;17.60;70.50;;;;;;20903925;28;20041;-71
2021/09/20 13:20:43;;;;;;;1.45;1.10;;;17.60;70.30;;;;;;20903837;28;20040;-77
2021/09/20 13:30:51;;;;;;;1.88;0.77;;;17.60;70.30;;;;;;20888056;28;20045;-82
2021/09/20 13:40:58;;;;;;;1.08;0.70;;;17.60;70.30;;;;;;20868840;28;20061;-75
2021/09/20 13:50:59;;;;;;;0.90;0.65;;;17.60;70.30;;;;;;20896608;28;20486;-77
2021/09/20 14:00:59;;;;;;;2.42;1.20;;;17.60;70.10;;;;;;20897619;28;20032;-75
2021/09/20 14:11:04;;;;;;;1.95;1.02;;;17.60;69.50;;;;;;20913832;28;20187;-79
2021/09/20 14:21:05;;;;;;;1.33;0.87;;;17.60;69.60;;;;;;20897255;28;20091;-81
2021/09/20 14:31:06;;;;;;;1.70;0.98;;;17.60;69.70;;;;;;20864502;28;20052;-80
2021/09/20 14:41:07;;;;;;;1.85;1.20;;;17.60;69.70;;;;;;20891896;28;20063;-84
2021/09/20 14:51:08;;;;;;;2.08;0.90;;;17.60;69.70;;;;;;20880098;28;20402;-81
2021/09/20 15:01:09;;;;;;;2.13;0.80;;;17.50;69.40;;;;;;20894753;28;20035;-78
2021/09/20 15:11:11;;;;;;;1.95;1.00;;;17.50;69.40;;;;;;20859305;28;20477;-78
2021/09/20 15:21:11;;;;;;;1.33;0.80;;;17.60;69.60;;;;;;20874594;28;20525;-79
2021/09/20 15:31:13;;;;;;;2.17;1.02;;;17.50;69.60;;;;;;20877833;28;20125;-80
2021/09/20 15:41:17;;;;;;;1.33;0.70;;;17.50;69.60;;;;;;20837375;28;20112;-79
2021/09/20 15:51:17;;;;;;;1.45;1.00;;;17.50;69.80;;;;;;20873857;28;20037;-78
2021/09/20 16:01:18;;;;;;;1.92;0.90;;;17.50;69.90;;;;;;20870377;28;20116;-80
2021/09/20 16:11:19;;;;;;;1.40;0.80;;;17.60;70.00;;;;;;20864575;28;20033;-78
2021/09/20 16:21:19;;;;;;;2.33;1.23;;;17.50;69.90;;;;;;20901013;28;20691;-78
2021/09/20 16:31:23;;;;;;;1.80;1.05;;;17.50;69.80;;;;;;20908692;28;20037;-78
2021/09/20 16:41:24;;;;;;;1.98;1.00;;;17.50;69.70;;;;;;20825844;28;20129;-75
2021/09/20 16:51:25;;;;;;;3.22;1.17;;;17.50;69.70;;;;;;20838933;28;20124;-77
2021/09/20 17:01:25;;;;;;;1.40;0.85;;;17.50;69.60;;;;;;20822742;28;20476;-81
2021/09/20 17:11:27;;;;;;;2.50;1.35;;;17.60;69.60;;;;;;20889368;28;20475;-82
2021/09/20 17:21:29;;;;;;;1.80;1.20;;;17.50;69.70;;;;;;20920831;28;20119;-81
2021/09/20 17:31:31;;;;;;;4.18;1.40;;;17.50;69.80;;;;;;20918701;28;20095;-75
2021/09/20 17:41:32;;;;;;;3.13;1.08;;;17.50;69.80;;;;;;20913657;28;20083;-77
2021/09/20 17:51:33;;;;;;;2.08;1.10;;;17.50;69.80;;;;;;20898536;28;20403;-78
2021/09/20 18:01:35;;;;;;;3.97;1.13;;;17.50;69.90;;;;;;20898283;28;20085;-79
2021/09/20 18:11:36;;;;;;;2.88;1.45;;;17.50;70.00;;;;;;20897380;28;20087;-79
2021/09/20 18:21:37;;;;;;;3.25;0.90;;;17.50;70.00;;;;;;20912911;28;20075;-79
2021/09/20 18:31:39;;;;;;;2.60;0.95;;;17.50;70.00;;;;;;20895974;28;20472;-79
2021/09/20 18:41:40;;;;;;;1.73;1.20;;;17.50;70.00;;;;;;20877714;28;20029;-79
2021/09/20 18:51:40;;;;;;;4.20;1.10;;;17.40;70.00;;;;;;20877714;28;20037;-79
2021/09/20 19:01:42;;;;;;;2.13;1.47;;;17.50;70.10;;;;;;20877064;28;20576;-79
2021/09/20 19:11:43;;;;;;;2.05;1.10;;;17.40;70.10;;;;;;20876217;28;20045;-80
2021/09/20 19:21:45;;;;;;;1.60;1.02;;;17.40;70.10;;;;;;20892215;28;20044;-79
2021/09/20 19:31:47;;;;;;;1.77;1.48;;;17.40;70.20;;;;;;20907853;28;20053;-80
2021/09/20 19:41:49;;;;;;;1.75;1.08;;;17.40;70.20;;;;;;20891898;28;20082;-80
2021/09/20 19:51:50;;;;;;;1.60;1.13;;;17.40;70.20;;;;;;20889634;28;20052;-79
2021/09/20 20:01:51;;;;;;;2.00;1.00;;;17.40;70.20;;;;;;20888795;28;20076;-77
2021/09/20 20:11:52;;;;;;;3.08;1.40;;;17.40;70.20;;;;;;20887711;28;20033;-76
2021/09/20 20:21:53;;;;;;;3.47;1.53;;;17.40;70.20;;;;;;20908518;28;20036;-81
2021/09/20 20:31:55;;;;;;;2.67;1.45;;;17.40;70.20;;;;;;20873696;28;20825;-81
2021/09/20 20:41:56;;;;;;;2.83;1.10;;;17.40;70.20;;;;;;20889932;28;20037;-81
2021/09/20 20:51:57;;;;;;;2.20;1.40;;;17.40;70.20;;;;;;20888848;28;20048;-81
2021/09/20 21:01:57;;;;;;;2.00;1.10;;;17.40;70.20;;;;;;20891494;28;20037;-81
2021/09/20 21:11:58;;;;;;;1.52;1.17;;;17.40;70.20;;;;;;20888027;28;20041;-81
2021/09/20 21:22:01;;;;;;;3.22;1.60;;;17.40;70.30;;;;;;20902923;28;20044;-81
2021/09/20 21:32:02;;;;;;;3.03;1.52;;;17.40;70.20;;;;;;20902746;28;20123;-81
2021/09/20 21:42:03;;;;;;;2.13;1.20;;;17.40;70.30;;;;;;20902080;28;20521;-81
2021/09/20 21:52:03;;;;;;;2.05;1.30;;;17.40;70.30;;;;;;20885316;28;20298;-81
2021/09/20 22:02:06;;;;;;;2.45;1.38;;;17.40;69.70;;;;;;20900582;28;20029;-81
2021/09/20 22:12:06;;;;;;;1.27;1.00;;;17.40;70.30;;;;;;20898737;28;20071;-81
2021/09/20 22:22:07;;;;;;;3.20;1.43;;;17.40;70.40;;;;;;20898859;28;20083;-81
2021/09/20 22:32:08;;;;;;;1.70;1.10;;;17.30;70.30;;;;;;20915094;28;20294;-81
2021/09/20 22:42:10;;;;;;;2.65;1.30;;;17.40;70.30;;;;;;20896696;28;20128;-82
2021/09/20 22:52:10;;;;;;;2.63;1.38;;;17.30;70.30;;;;;;20879345;28;20140;-81
2021/09/20 23:02:12;;;;;;;1.93;1.57;;;17.30;70.30;;;;;;20895417;28;20029;-81
2021/09/20 23:12:14;;;;;;;5.43;2.30;;;17.30;70.30;;;;;;20878367;28;20303;-81
2021/09/20 23:22:15;;;;;;;3.47;2.03;;;17.30;70.30;;;;;;20893872;28;20044;-81
2021/09/20 23:32:16;;;;;;;2.55;1.42;;;17.30;70.30;;;;;;20877449;28;20091;-81
2021/09/20 23:42:24;;;;;;;4.15;1.58;;;17.30;70.30;;;;;;20909822;28;20040;-81
2021/09/20 23:52:27;;;;;;;3.05;1.60;;;17.30;70.30;;;;;;20908694;28;20067;-81
